createdAt,value
2023-03-31T00:02:41.450Z,99396.13
2023-03-31T00:07:43.940Z,99396.66
2023-03-31T00:12:45.970Z,99385.28
2023-03-31T00:17:47.749Z,99383.19
2023-03-31T00:22:49.359Z,99382.59
2023-03-31T00:27:52.721Z,99374.28
2023-03-31T00:32:54.393Z,99373.44
2023-03-31T00:37:57.920Z,99364.94
2023-03-31T00:42:59.596Z,99361.31
2023-03-31T00:48:10.448Z,99353.19
2023-03-31T00:53:15.957Z,99347.06
2023-03-31T00:58:20.293Z,99332.38
2023-03-31T01:03:25.222Z,99323.03
2023-03-31T01:08:27.690Z,99320.78
2023-03-31T01:13:30.413Z,99317.19
2023-03-31T01:18:34.987Z,99309.22
2023-03-31T01:23:42.018Z,99290.09
2023-03-31T01:29:02.839Z,99292.41
2023-03-31T01:34:11.796Z,99289.53
2023-03-31T01:39:50.341Z,99272.88
2023-03-31T01:45:12.250Z,99277.03
2023-03-31T01:50:46.711Z,99276.41
2023-03-31T01:56:14.296Z,99259.38
2023-03-31T02:01:21.115Z,99263.72
2023-03-31T02:06:27.183Z,99248.47
2023-03-31T02:11:30.195Z,99234.31
2023-03-31T02:16:33.515Z,99228.41
2023-03-31T02:21:38.714Z,99220.16
2023-03-31T02:26:46.451Z,99222.66
2023-03-31T02:31:55.178Z,99206.84
2023-03-31T02:36:56.874Z,99208.09
2023-03-31T02:41:58.660Z,99206.63
2023-03-31T02:47:00.781Z,99198.06
2023-03-31T02:52:08.364Z,99199.69
2023-03-31T02:57:19.365Z,99181.84
2023-03-31T03:02:36.955Z,99176.22
2023-03-31T03:07:56.316Z,99172.25
2023-03-31T03:13:18.271Z,99178.44
2023-03-31T03:18:19.870Z,99181.66
2023-03-31T03:23:22.659Z,99172.97
2023-03-31T03:28:24.598Z,99161.31
2023-03-31T03:33:26.231Z,99154.31
2023-03-31T03:38:27.871Z,99151.53
2023-03-31T03:43:29.473Z,99150.03
2023-03-31T03:48:31.064Z,99149.50
2023-03-31T03:53:32.796Z,99143.22
2023-03-31T03:58:34.529Z,99139.06
2023-03-31T04:03:36.151Z,99128.97
2023-03-31T04:08:37.761Z,99125.00
2023-03-31T04:13:39.337Z,99111.97
2023-03-31T04:18:43.627Z,99111.50
2023-03-31T04:23:47.878Z,99100.88
2023-03-31T04:28:50.717Z,99104.19
2023-03-31T04:33:53.441Z,99091.63
2023-03-31T04:38:55.135Z,99083.88
2023-03-31T04:43:56.813Z,99073.97
2023-03-31T04:48:59.249Z,99069.38
2023-03-31T04:54:00.922Z,99059.28
2023-03-31T04:59:03.965Z,99060.00
2023-03-31T05:04:05.986Z,99040.91
2023-03-31T05:09:09.620Z,99041.34
2023-03-31T05:14:11.272Z,99033.19
2023-03-31T05:19:12.878Z,99029.34
2023-03-31T05:24:14.845Z,99018.97
2023-03-31T05:29:16.796Z,99010.28
2023-03-31T05:34:18.436Z,99001.31
2023-03-31T05:39:20.088Z,98983.94
2023-03-31T05:44:21.697Z,98971.28
2023-03-31T05:49:23.283Z,98966.94
2023-03-31T05:54:24.964Z,98952.88
2023-03-31T05:59:26.732Z,98946.56
2023-03-31T06:04:28.588Z,98941.56
2023-03-31T06:09:30.420Z,98924.81
2023-03-31T06:14:32.009Z,98928.53
2023-03-31T06:19:33.626Z,98929.78
2023-03-31T06:24:35.385Z,98921.13
2023-03-31T06:29:37.000Z,98912.50
2023-03-31T06:34:38.654Z,98897.72
2023-03-31T06:39:40.407Z,98890.22
2023-03-31T06:44:42.014Z,98889.50
2023-03-31T06:49:43.642Z,98892.09
2023-03-31T06:54:45.671Z,98881.88
2023-03-31T06:59:47.438Z,98883.16
2023-03-31T07:04:49.004Z,98877.34
2023-03-31T07:09:50.618Z,98872.63
2023-03-31T07:14:52.235Z,98879.22
2023-03-31T07:19:53.874Z,98870.13
2023-03-31T07:24:55.561Z,98867.88
2023-03-31T07:29:57.198Z,98865.41
2023-03-31T07:34:59.245Z,98862.50
2023-03-31T07:40:00.917Z,98847.41
2023-03-31T07:45:06.230Z,98840.16
2023-03-31T07:50:08.448Z,98822.34
2023-03-31T07:55:10.510Z,98819.38
2023-03-31T08:00:12.832Z,98815.84
2023-03-31T08:05:16.389Z,98810.03
2023-03-31T08:10:24.935Z,98805.09
2023-03-31T08:15:26.629Z,98803.88
2023-03-31T08:20:28.240Z,98806.78
2023-03-31T08:25:29.835Z,98810.94
2023-03-31T08:30:31.413Z,98796.66
2023-03-31T08:35:33.334Z,98809.88
2023-03-31T08:40:34.997Z,98796.22
2023-03-31T08:45:40.243Z,98785.25
2023-03-31T08:50:47.780Z,98783.00
2023-03-31T08:55:51.244Z,98778.25
2023-03-31T09:01:14.165Z,98765.00
2023-03-31T09:06:21.144Z,98769.34
2023-03-31T09:11:36.334Z,98762.75
2023-03-31T09:16:56.222Z,98761.91
2023-03-31T09:22:00.429Z,98737.31
2023-03-31T09:27:12.255Z,98737.31
2023-03-31T09:32:18.033Z,98727.19
2023-03-31T09:37:19.802Z,98727.59
2023-03-31T09:42:21.422Z,98704.44
2023-03-31T09:47:32.704Z,98701.69
2023-03-31T09:52:53.390Z,98688.47
2023-03-31T09:57:54.976Z,98694.91
2023-03-31T10:02:57.781Z,98694.06
2023-03-31T10:08:14.407Z,98681.69
2023-03-31T10:13:48.251Z,98671.31
2023-03-31T10:18:49.979Z,98675.25
2023-03-31T10:23:52.561Z,98667.59
2023-03-31T10:28:55.370Z,98660.56
2023-03-31T10:33:58.403Z,98653.78
2023-03-31T10:39:00.147Z,98648.16
2023-03-31T10:44:04.086Z,98639.28
2023-03-31T10:49:24.382Z,98624.81
2023-03-31T10:54:26.769Z,98627.50
2023-03-31T10:59:51.817Z,98620.00
2023-03-31T11:04:59.082Z,98618.34
2023-03-31T11:10:28.058Z,98609.53
2023-03-31T11:15:43.021Z,98597.31
2023-03-31T11:21:04.022Z,98583.25
2023-03-31T11:26:26.010Z,98587.16
2023-03-31T11:31:34.018Z,98575.78
2023-03-31T11:36:50.566Z,98573.16
2023-03-31T11:42:01.415Z,98561.75
2023-03-31T11:47:13.652Z,98546.91
2023-03-31T11:52:17.258Z,98539.50
2023-03-31T11:57:40.632Z,98532.91
2023-03-31T12:03:19.829Z,98539.75
2023-03-31T12:08:41.928Z,98527.97
2023-03-31T12:13:56.253Z,98511.84
2023-03-31T12:19:03.173Z,98516.59
2023-03-31T12:24:06.513Z,98506.66
2023-03-31T12:29:21.090Z,98499.00
2023-03-31T12:34:24.682Z,98486.81
2023-03-31T12:39:47.370Z,98475.88
2023-03-31T12:45:24.154Z,98462.25
2023-03-31T12:50:28.640Z,98461.44
2023-03-31T12:55:37.486Z,98449.84
2023-03-31T13:00:59.175Z,98435.81
2023-03-31T13:06:01.641Z,98424.25
2023-03-31T13:11:03.296Z,98403.22
2023-03-31T13:16:05.229Z,98418.88
2023-03-31T13:21:08.340Z,98407.13
2023-03-31T13:26:32.597Z,98393.31
2023-03-31T13:32:00.430Z,98383.38
2023-03-31T13:37:29.069Z,98368.50
2023-03-31T13:42:33.361Z,98364.72
2023-03-31T13:47:41.386Z,98360.53
2023-03-31T13:52:45.886Z,98339.50
2023-03-31T13:58:05.393Z,98337.00
2023-03-31T14:03:41.544Z,98343.63
2023-03-31T14:08:58.126Z,98347.75
2023-03-31T14:14:06.716Z,98353.34
2023-03-31T14:19:32.507Z,98348.97
2023-03-31T14:24:41.272Z,98357.78
2023-03-31T14:29:58.057Z,98350.84
2023-03-31T14:34:59.852Z,98356.50
2023-03-31T14:40:01.844Z,98341.81
2023-03-31T14:45:06.197Z,98342.19
2023-03-31T14:50:15.408Z,98336.78
2023-03-31T14:55:18.710Z,98325.56
2023-03-31T15:00:29.787Z,98316.00
2023-03-31T15:05:33.389Z,98303.69
2023-03-31T15:10:45.595Z,98312.59
2023-03-31T15:15:47.251Z,98318.97
2023-03-31T15:20:48.910Z,98317.66
2023-03-31T15:26:08.132Z,98310.34
2023-03-31T15:31:10.827Z,98318.19
2023-03-31T15:36:12.903Z,98314.06
2023-03-31T15:41:16.904Z,98312.03
2023-03-31T15:46:40.738Z,98296.97
2023-03-31T15:51:42.328Z,98296.44
2023-03-31T15:56:45.601Z,98294.34
2023-03-31T16:01:49.491Z,98287.72
2023-03-31T16:06:57.977Z,98286.38
2023-03-31T16:12:02.855Z,98285.50
2023-03-31T16:17:09.044Z,98292.19
2023-03-31T16:22:15.746Z,98282.75
2023-03-31T16:27:18.416Z,98285.19
2023-03-31T16:32:20.943Z,98300.53
2023-03-31T16:37:23.145Z,98305.50
2023-03-31T16:42:24.993Z,98315.78
2023-03-31T16:47:35.258Z,98325.59
2023-03-31T16:52:38.045Z,98329.00
2023-03-31T16:57:39.643Z,98335.25
2023-03-31T17:02:41.619Z,98344.88
2023-03-31T17:07:43.369Z,98337.66
2023-03-31T17:12:45.024Z,98340.16
2023-03-31T17:17:47.737Z,98335.06
2023-03-31T17:22:49.473Z,98335.44
2023-03-31T17:27:51.103Z,98332.81
2023-03-31T17:32:52.835Z,98327.72
2023-03-31T17:37:55.247Z,98331.22
2023-03-31T17:42:56.870Z,98333.47
2023-03-31T17:47:59.258Z,98345.91
2023-03-31T17:53:01.438Z,98356.22
2023-03-31T17:58:03.436Z,98358.31
2023-03-31T18:03:05.260Z,98358.72
2023-03-31T18:08:07.256Z,98367.38
2023-03-31T18:13:09.778Z,98363.88
2023-03-31T18:18:11.560Z,98370.66
2023-03-31T18:23:13.288Z,98377.69
2023-03-31T18:28:16.320Z,98382.22
2023-03-31T18:33:17.996Z,98388.03
2023-03-31T18:38:19.818Z,98383.06
2023-03-31T18:43:25.168Z,98389.44
2023-03-31T18:48:27.099Z,98385.53
2023-03-31T18:53:30.083Z,98381.81
2023-03-31T18:58:31.829Z,98393.38
2023-03-31T19:03:33.535Z,98390.31
2023-03-31T19:08:35.271Z,98385.53
2023-03-31T19:13:38.156Z,98390.09
2023-03-31T19:18:39.850Z,98389.66
2023-03-31T19:23:41.515Z,98389.25
2023-03-31T19:28:43.168Z,98385.13
2023-03-31T19:33:44.793Z,98391.31
2023-03-31T19:38:46.520Z,98393.59
2023-03-31T19:43:48.970Z,98385.97
2023-03-31T19:48:51.207Z,98393.38
2023-03-31T19:53:53.617Z,98395.66
2023-03-31T19:58:55.395Z,98392.75
2023-03-31T20:03:57.524Z,98398.16
2023-03-31T20:09:00.773Z,98382.66
2023-03-31T20:14:03.598Z,98390.50
2023-03-31T20:19:06.323Z,98397.53
2023-03-31T20:24:08.446Z,98390.91
2023-03-31T20:29:10.661Z,98396.91
2023-03-31T20:34:16.852Z,98388.84
2023-03-31T20:39:19.904Z,98407.41
2023-03-31T20:44:21.916Z,98401.22
2023-03-31T20:49:23.567Z,98398.53
2023-03-31T20:54:25.215Z,98392.59
2023-03-31T20:59:27.131Z,98402.06
2023-03-31T21:04:28.775Z,98409.06
2023-03-31T21:09:31.027Z,98404.97
2023-03-31T21:14:33.082Z,98410.31
2023-03-31T21:19:34.698Z,98416.53
2023-03-31T21:24:36.490Z,98419.41
2023-03-31T21:29:38.180Z,98414.06
2023-03-31T21:34:39.851Z,98413.63
2023-03-31T21:39:41.426Z,98410.13
2023-03-31T21:44:43.613Z,98408.69
2023-03-31T21:49:45.304Z,98405.19
2023-03-31T21:54:47.127Z,98420.66
2023-03-31T21:59:48.741Z,98423.09
2023-03-31T22:04:50.862Z,98421.88
2023-03-31T22:09:52.609Z,98422.28
2023-03-31T22:14:54.557Z,98416.94
2023-03-31T22:19:56.933Z,98408.28
2023-03-31T22:24:58.550Z,98411.34
2023-03-31T22:30:00.590Z,98401.06
2023-03-31T22:35:02.215Z,98414.03
2023-03-31T22:40:04.726Z,98402.06
2023-03-31T22:45:06.957Z,98400.00
2023-03-31T22:50:09.955Z,98407.81
2023-03-31T22:55:11.652Z,98403.31
2023-03-31T23:00:13.869Z,98393.38
2023-03-31T23:05:15.733Z,98392.09
2023-03-31T23:10:17.501Z,98388.44
2023-03-31T23:15:19.117Z,98397.94
2023-03-31T23:20:21.358Z,98404.50
2023-03-31T23:25:23.037Z,98393.78
2023-03-31T23:30:25.081Z,98396.91
2023-03-31T23:35:27.283Z,98401.44
2023-03-31T23:40:28.880Z,98403.72
2023-03-31T23:45:30.668Z,98398.34
2023-03-31T23:50:33.896Z,98406.41
2023-03-31T23:55:35.755Z,98401.41
